Seward, AK (99664)

10:29 AM AKDT on October 30, 2014 (GMT -0800)
RAWS HARDING ICEFIELD AK US | Change Station
CLOSE
Current Station
Personal Weather Station
Location: Seward, AK
Elevation: 4299 ft
Nearby Weather Stations

Elev 4299 ft 60.13 °N, 149.78 °W | Updated 46 minutes ago

Overcast
Overcast
18 °F
Feels Like 10 °F
N
6
Wind Variable Wind from WNW
Gusts 7.0 mph

Today
High -- | Low -- °F
--% Chance of Precip.
Yesterday
High -- | Low -- °F
Precip. -- in
9:16 AM 6:05 PM
Waxing Crescent, 46% visible
Pressure 29.49 in
Visibility 10.0 miles
Clouds Overcast 6500 ft
Windchill 10 °F
Dew Point 17 °F
Humidity 94%
Rainfall 0.00 in
Snow Depth Not available.
UV 0 out of 12
Pollen Not available.
Air Quality Not available.
Flu Activity Not available.
METAR PAWD 301753Z AUTO 01014G26KT 10SM OVC065 03/M03 A2949 RMK AO2 PK WND 01027/1713 SLP987 T00281033 10028 20017 56018 TSNO

More Conditions Fewer Conditions

Pressure 29.49 in
Visibility 10.0 miles
Clouds Overcast 6500 ft
Windchill 10 °F
Dew Point 17 °F
Humidity 94%
Rainfall 0.00 in
Snow Depth Not available.
UV 0 out of 12
Pollen Not available.
Air Quality Not available.
Flu Activity Not available.
METAR PAWD 301753Z AUTO 01014G26KT 10SM OVC065 03/M03 A2949 RMK AO2 PK WND 01027/1713 SLP987 T00281033 10028 20017 56018 TSNO

More Conditions Fewer Conditions

10-Day Weather Forecast

Almanac

Astronomy

Oct. 30, 2014 Rise Set
Actual Time
Civil Twilight
Nautical Twilight
Astronomical Twilight
Moon
Length of Visible Light
Length of Day
Tomorrow will be .
, % of the Moon is Illuminated

Today's Extremes

State Highs State Lows

Community

WunderPhotos

Upload Photos

1,766,419 photos uploaded!

WunderBlogs® & News

Nearby

Air Quality

  Air Quality AQ Index Pollutant
Not available.

Snow Depth

Station Depth Elevation

Earthquake Activity

City Distance Mag. Time & Date
Minimum magnitude displayed is 2.5.

Coastal Water Temperatures

Place Temperature

Nearby Weather Stations